GMTN/TTU METAR and TAF weather

Enter ICAO airport designator
Station Type Date Time Source
GMTN METAR 2021/09/27 06:00 UTC NOAA

GMTN 270600Z 20008KT CAVOK 16/13 Q1020 NOSIG


Station Type Date Time Source
GMTN Decoded METAR 2021/09/27 06:00 UTC NOAA

Tetuan / Sania Ramel, Morocco (GMTN) 35-35N 005-20W 10M
Sep 27, 2021 - 02:00 AM EDT / 2021.09.27 0600 UTC
Wind: from the SSW (200 degrees) at 9 MPH (8 KT):0
Visibility: greater than 7 mile(s):0
Temperature: 60 F (16 C)
Dew Point: 55 F (13 C)
Relative Humidity: 82%
Pressure (altimeter): 30.12 in. Hg (1020 hPa)
ob: GMTN 270600Z 20008KT CAVOK 16/13 Q1020 NOSIG
cycle: 6

Station Type Date Time Source
GMTN TAF 2021/07/02 12:21 UTC NOAA

TAF GMTN 021100Z 0212/0318 09008KT CAVOK
BECMG 0219/0223 26012KT

Example: see airport list